sensor_id;sensor_type;location;lat;lon;timestamp;temperature;humidity
18454;DHT22;9356;52.202;20.950;2023-06-22T00:00:03;23.20;99.90
18454;DHT22;9356;52.202;20.950;2023-06-22T00:01:15;23.20;99.90
18454;DHT22;9356;52.202;20.950;2023-06-22T00:02:19;23.20;99.90
18454;DHT22;9356;52.202;20.950;2023-06-22T00:03:24;23.10;99.90
18454;DHT22;9356;52.202;20.950;2023-06-22T00:04:38;23.10;99.90
18454;DHT22;9356;52.202;20.950;2023-06-22T00:05:44;23.10;99.90
18454;DHT22;9356;52.202;20.950;2023-06-22T00:06:51;23.00;99.90
18454;DHT22;9356;52.202;20.950;2023-06-22T00:07:55;23.00;99.90
18454;DHT22;9356;52.202;20.950;2023-06-22T00:09:00;22.90;99.90
18454;DHT22;9356;52.202;20.950;2023-06-22T00:10:07;22.90;99.90
18454;DHT22;9356;52.202;20.950;2023-06-22T00:11:12;22.90;99.90
18454;DHT22;9356;52.202;20.950;2023-06-22T00:12:15;22.90;99.90
18454;DHT22;9356;52.202;20.950;2023-06-22T00:13:23;22.90;99.90
18454;DHT22;9356;52.202;20.950;2023-06-22T00:14:28;23.00;99.90
18454;DHT22;9356;52.202;20.950;2023-06-22T00:15:32;22.90;99.90
18454;DHT22;9356;52.202;20.950;2023-06-22T00:16:43;22.90;99.90
18454;DHT22;9356;52.202;20.950;2023-06-22T00:17:56;22.90;99.90
18454;DHT22;9356;52.202;20.950;2023-06-22T00:19:03;22.90;99.90
18454;DHT22;9356;52.202;20.950;2023-06-22T00:20:10;22.90;99.90
18454;DHT22;9356;52.202;20.950;2023-06-22T00:21:14;22.90;99.90
18454;DHT22;9356;52.202;20.950;2023-06-22T00:22:22;22.90;99.90
18454;DHT22;9356;52.202;20.950;2023-06-22T00:23:33;22.90;99.90
18454;DHT22;9356;52.202;20.950;2023-06-22T00:24:38;22.90;99.90
18454;DHT22;9356;52.202;20.950;2023-06-22T00:25:42;22.90;99.90
18454;DHT22;9356;52.202;20.950;2023-06-22T00:26:48;22.90;99.90
18454;DHT22;9356;52.202;20.950;2023-06-22T00:27:52;22.90;99.90
18454;DHT22;9356;52.202;20.950;2023-06-22T00:28:56;22.90;99.90
18454;DHT22;9356;52.202;20.950;2023-06-22T00:30:00;23.00;99.90
18454;DHT22;9356;52.202;20.950;2023-06-22T00:31:06;23.00;99.90
18454;DHT22;9356;52.202;20.950;2023-06-22T00:32:11;23.00;99.90
18454;DHT22;9356;52.202;20.950;2023-06-22T00:33:22;23.00;99.90
18454;DHT22;9356;52.202;20.950;2023-06-22T00:34:30;23.00;99.90
18454;DHT22;9356;52.202;20.950;2023-06-22T00:35:35;22.90;99.90
18454;DHT22;9356;52.202;20.950;2023-06-22T00:36:39;23.00;99.90
18454;DHT22;9356;52.202;20.950;2023-06-22T00:37:49;23.00;99.90
18454;DHT22;9356;52.202;20.950;2023-06-22T00:39:00;23.00;99.90
18454;DHT22;9356;52.202;20.950;2023-06-22T00:40:07;23.00;99.90
18454;DHT22;9356;52.202;20.950;2023-06-22T00:41:14;23.00;99.90
18454;DHT22;9356;52.202;20.950;2023-06-22T00:42:18;22.90;99.90
18454;DHT22;9356;52.202;20.950;2023-06-22T00:43:24;22.90;99.90
18454;DHT22;9356;52.202;20.950;2023-06-22T00:44:32;22.90;99.90
18454;DHT22;9356;52.202;20.950;2023-06-22T00:45:39;22.80;99.90
18454;DHT22;9356;52.202;20.950;2023-06-22T00:46:44;22.80;99.90
18454;DHT22;9356;52.202;20.950;2023-06-22T00:47:54;22.80;99.90
18454;DHT22;9356;52.202;20.950;2023-06-22T00:48:59;22.80;99.90
18454;DHT22;9356;52.202;20.950;2023-06-22T00:50:08;22.80;99.90
18454;DHT22;9356;52.202;20.950;2023-06-22T00:51:15;22.70;99.90
18454;DHT22;9356;52.202;20.950;2023-06-22T00:52:22;22.80;99.90
18454;DHT22;9356;52.202;20.950;2023-06-22T00:53:34;22.70;99.90
18454;DHT22;9356;52.202;20.950;2023-06-22T00:54:40;22.70;99.90
18454;DHT22;9356;52.202;20.950;2023-06-22T00:55:49;22.80;99.90
18454;DHT22;9356;52.202;20.950;2023-06-22T00:56:55;22.80;99.90
18454;DHT22;9356;52.202;20.950;2023-06-22T00:57:59;22.80;99.90
18454;DHT22;9356;52.202;20.950;2023-06-22T00:59:04;22.80;99.90
18454;DHT22;9356;52.202;20.950;2023-06-22T01:00:08;22.90;99.90
18454;DHT22;9356;52.202;20.950;2023-06-22T01:01:28;22.80;99.90
18454;DHT22;9356;52.202;20.950;2023-06-22T01:02:35;22.90;99.90
18454;DHT22;9356;52.202;20.950;2023-06-22T01:03:48;22.80;99.90
18454;DHT22;9356;52.202;20.950;2023-06-22T01:04:51;22.80;99.90
18454;DHT22;9356;52.202;20.950;2023-06-22T01:06:08;22.80;99.90
18454;DHT22;9356;52.202;20.950;2023-06-22T01:07:24;22.90;99.90
18454;DHT22;9356;52.202;20.950;2023-06-22T01:08:46;22.80;99.90
18454;DHT22;9356;52.202;20.950;2023-06-22T01:09:59;22.80;99.90
18454;DHT22;9356;52.202;20.950;2023-06-22T01:11:08;22.80;99.90
18454;DHT22;9356;52.202;20.950;2023-06-22T01:12:16;22.90;99.90
18454;DHT22;9356;52.202;20.950;2023-06-22T01:13:32;22.90;99.90
18454;DHT22;9356;52.202;20.950;2023-06-22T01:14:43;22.90;99.90
18454;DHT22;9356;52.202;20.950;2023-06-22T01:16:00;22.90;99.90
18454;DHT22;9356;52.202;20.950;2023-06-22T01:17:08;23.00;99.90
18454;DHT22;9356;52.202;20.950;2023-06-22T01:18:14;23.00;99.90
18454;DHT22;9356;52.202;20.950;2023-06-22T01:19:37;23.00;99.90
18454;DHT22;9356;52.202;20.950;2023-06-22T01:20:46;23.00;99.90
18454;DHT22;9356;52.202;20.950;2023-06-22T01:21:56;23.00;99.90
18454;DHT22;9356;52.202;20.950;2023-06-22T01:23:09;23.00;99.90
18454;DHT22;9356;52.202;20.950;2023-06-22T01:24:22;22.90;99.90
18454;DHT22;9356;52.202;20.950;2023-06-22T01:25:31;23.00;99.90
18454;DHT22;9356;52.202;20.950;2023-06-22T01:26:42;23.00;99.90
18454;DHT22;9356;52.202;20.950;2023-06-22T01:28:03;23.00;99.90
18454;DHT22;9356;52.202;20.950;2023-06-22T01:29:14;23.00;99.90
18454;DHT22;9356;52.202;20.950;2023-06-22T01:30:19;23.00;99.90
18454;DHT22;9356;52.202;20.950;2023-06-22T01:31:26;23.00;99.90
18454;DHT22;9356;52.202;20.950;2023-06-22T01:32:34;23.00;99.90
18454;DHT22;9356;52.202;20.950;2023-06-22T01:33:43;22.90;99.90
18454;DHT22;9356;52.202;20.950;2023-06-22T01:34:52;23.00;99.90
18454;DHT22;9356;52.202;20.950;2023-06-22T01:35:58;23.00;99.90
18454;DHT22;9356;52.202;20.950;2023-06-22T01:37:02;23.00;99.90
18454;DHT22;9356;52.202;20.950;2023-06-22T01:38:10;23.00;99.90
18454;DHT22;9356;52.202;20.950;2023-06-22T01:39:16;23.00;99.90
18454;DHT22;9356;52.202;20.950;2023-06-22T01:40:22;23.00;99.90
18454;DHT22;9356;52.202;20.950;2023-06-22T01:41:30;22.90;99.90
18454;DHT22;9356;52.202;20.950;2023-06-22T01:42:38;23.00;99.90
18454;DHT22;9356;52.202;20.950;2023-06-22T01:43:48;22.90;99.90
18454;DHT22;9356;52.202;20.950;2023-06-22T01:45:00;22.90;99.90
18454;DHT22;9356;52.202;20.950;2023-06-22T01:46:06;22.90;99.90
18454;DHT22;9356;52.202;20.950;2023-06-22T01:47:14;22.90;99.90
18454;DHT22;9356;52.202;20.950;2023-06-22T01:48:19;22.90;99.90
18454;DHT22;9356;52.202;20.950;2023-06-22T01:49:26;22.90;99.90
18454;DHT22;9356;52.202;20.950;2023-06-22T01:50:30;22.90;99.90
18454;DHT22;9356;52.202;20.950;2023-06-22T01:51:34;22.90;99.90
18454;DHT22;9356;52.202;20.950;2023-06-22T01:52:39;22.90;99.90
18454;DHT22;9356;52.202;20.950;2023-06-22T01:53:46;22.80;99.90
18454;DHT22;9356;52.202;20.950;2023-06-22T01:54:54;22.90;99.90
18454;DHT22;9356;52.202;20.950;2023-06-22T01:56:00;22.80;99.90
18454;DHT22;9356;52.202;20.950;2023-06-22T01:57:12;22.90;99.90
18454;DHT22;9356;52.202;20.950;2023-06-22T01:58:15;22.90;99.90
18454;DHT22;9356;52.202;20.950;2023-06-22T01:59:28;22.90;99.90
18454;DHT22;9356;52.202;20.950;2023-06-22T02:00:44;22.80;99.90
18454;DHT22;9356;52.202;20.950;2023-06-22T02:01:54;22.90;99.90
18454;DHT22;9356;52.202;20.950;2023-06-22T02:03:08;22.90;99.90
18454;DHT22;9356;52.202;20.950;2023-06-22T02:04:21;22.90;99.90
18454;DHT22;9356;52.202;20.950;2023-06-22T02:05:36;22.90;99.90
18454;DHT22;9356;52.202;20.950;2023-06-22T02:06:46;22.90;99.90
18454;DHT22;9356;52.202;20.950;2023-06-22T02:08:00;22.90;99.90
18454;DHT22;9356;52.202;20.950;2023-06-22T02:09:11;22.90;99.90
18454;DHT22;9356;52.202;20.950;2023-06-22T02:10:18;22.90;99.90
18454;DHT22;9356;52.202;20.950;2023-06-22T02:11:30;22.90;99.90
18454;DHT22;9356;52.202;20.950;2023-06-22T02:12:36;22.90;99.90
18454;DHT22;9356;52.202;20.950;2023-06-22T02:13:43;22.90;99.90
18454;DHT22;9356;52.202;20.950;2023-06-22T02:14:48;22.90;99.90
18454;DHT22;9356;52.202;20.950;2023-06-22T02:15:56;22.90;99.90
18454;DHT22;9356;52.202;20.950;2023-06-22T02:17:00;22.90;99.90
18454;DHT22;9356;52.202;20.950;2023-06-22T02:18:06;22.90;99.90
18454;DHT22;9356;52.202;20.950;2023-06-22T02:19:10;22.90;99.90
18454;DHT22;9356;52.202;20.950;2023-06-22T02:20:15;22.80;99.90
18454;DHT22;9356;52.202;20.950;2023-06-22T02:21:23;22.80;99.90
18454;DHT22;9356;52.202;20.950;2023-06-22T02:22:30;22.80;99.90
18454;DHT22;9356;52.202;20.950;2023-06-22T02:23:34;22.80;99.90
18454;DHT22;9356;52.202;20.950;2023-06-22T02:24:39;22.80;99.90
18454;DHT22;9356;52.202;20.950;2023-06-22T02:25:43;22.80;99.90
18454;DHT22;9356;52.202;20.950;2023-06-22T02:26:50;22.80;99.90
18454;DHT22;9356;52.202;20.950;2023-06-22T02:27:54;22.80;99.90
18454;DHT22;9356;52.202;20.950;2023-06-22T02:29:02;22.70;99.90
18454;DHT22;9356;52.202;20.950;2023-06-22T02:30:06;22.80;99.90
18454;DHT22;9356;52.202;20.950;2023-06-22T02:31:59;22.80;99.90
18454;DHT22;9356;52.202;20.950;2023-06-22T02:33:05;22.80;99.90
18454;DHT22;9356;52.202;20.950;2023-06-22T02:34:10;22.80;99.90
18454;DHT22;9356;52.202;20.950;2023-06-22T02:35:25;22.70;99.90
18454;DHT22;9356;52.202;20.950;2023-06-22T02:36:37;22.70;99.90
18454;DHT22;9356;52.202;20.950;2023-06-22T02:37:44;22.70;99.90
18454;DHT22;9356;52.202;20.950;2023-06-22T02:38:51;22.70;99.90
18454;DHT22;9356;52.202;20.950;2023-06-22T02:40:01;22.70;99.90
18454;DHT22;9356;52.202;20.950;2023-06-22T02:41:05;22.70;99.90
18454;DHT22;9356;52.202;20.950;2023-06-22T02:42:12;22.70;99.90
18454;DHT22;9356;52.202;20.950;2023-06-22T02:43:17;22.70;99.90
18454;DHT22;9356;52.202;20.950;2023-06-22T02:44:24;22.60;99.90
18454;DHT22;9356;52.202;20.950;2023-06-22T02:45:27;22.70;99.90
18454;DHT22;9356;52.202;20.950;2023-06-22T02:46:37;22.60;99.90
18454;DHT22;9356;52.202;20.950;2023-06-22T02:47:46;22.60;99.90
18454;DHT22;9356;52.202;20.950;2023-06-22T02:48:51;22.60;99.90
18454;DHT22;9356;52.202;20.950;2023-06-22T02:49:54;22.50;99.90
18454;DHT22;9356;52.202;20.950;2023-06-22T02:51:00;22.50;99.90
18454;DHT22;9356;52.202;20.950;2023-06-22T02:52:10;22.50;99.90
18454;DHT22;9356;52.202;20.950;2023-06-22T02:53:18;22.50;99.90
18454;DHT22;9356;52.202;20.950;2023-06-22T02:54:24;22.50;99.90
18454;DHT22;9356;52.202;20.950;2023-06-22T02:55:34;22.40;99.90
18454;DHT22;9356;52.202;20.950;2023-06-22T02:56:42;22.40;99.90
18454;DHT22;9356;52.202;20.950;2023-06-22T02:57:47;22.40;99.90
18454;DHT22;9356;52.202;20.950;2023-06-22T02:58:50;22.40;99.90
18454;DHT22;9356;52.202;20.950;2023-06-22T02:59:58;22.40;99.90
18454;DHT22;9356;52.202;20.950;2023-06-22T03:01:05;22.40;99.90
18454;DHT22;9356;52.202;20.950;2023-06-22T03:02:12;22.30;99.90
18454;DHT22;9356;52.202;20.950;2023-06-22T03:03:19;22.30;99.90
18454;DHT22;9356;52.202;20.950;2023-06-22T03:04:24;22.40;99.90
18454;DHT22;9356;52.202;20.950;2023-06-22T03:05:27;22.30;99.90
18454;DHT22;9356;52.202;20.950;2023-06-22T03:06:34;22.30;99.90
18454;DHT22;9356;52.202;20.950;2023-06-22T03:07:40;22.30;99.90
18454;DHT22;9356;52.202;20.950;2023-06-22T03:08:47;22.30;99.90
18454;DHT22;9356;52.202;20.950;2023-06-22T03:09:51;22.30;99.90
18454;DHT22;9356;52.202;20.950;2023-06-22T03:10:59;22.30;99.90
18454;DHT22;9356;52.202;20.950;2023-06-22T03:12:07;22.30;99.90
18454;DHT22;9356;52.202;20.950;2023-06-22T03:13:23;22.30;99.90
18454;DHT22;9356;52.202;20.950;2023-06-22T03:14:28;22.30;99.90
18454;DHT22;9356;52.202;20.950;2023-06-22T03:15:34;22.30;99.90
18454;DHT22;9356;52.202;20.950;2023-06-22T03:16:42;22.20;99.90
18454;DHT22;9356;52.202;20.950;2023-06-22T03:17:45;22.30;99.90
18454;DHT22;9356;52.202;20.950;2023-06-22T03:18:53;22.30;99.90
18454;DHT22;9356;52.202;20.950;2023-06-22T03:19:56;22.30;99.90
18454;DHT22;9356;52.202;20.950;2023-06-22T03:21:16;22.20;99.90
18454;DHT22;9356;52.202;20.950;2023-06-22T03:22:20;22.20;99.90
18454;DHT22;9356;52.202;20.950;2023-06-22T03:23:25;22.20;99.90
18454;DHT22;9356;52.202;20.950;2023-06-22T03:24:28;22.20;99.90
18454;DHT22;9356;52.202;20.950;2023-06-22T03:25:34;22.20;99.90
18454;DHT22;9356;52.202;20.950;2023-06-22T03:26:41;22.20;99.90
18454;DHT22;9356;52.202;20.950;2023-06-22T03:27:49;22.20;99.90
18454;DHT22;9356;52.202;20.950;2023-06-22T03:28:58;22.20;99.90
18454;DHT22;9356;52.202;20.950;2023-06-22T03:30:10;22.10;99.90
18454;DHT22;9356;52.202;20.950;2023-06-22T03:31:20;22.10;99.90
18454;DHT22;9356;52.202;20.950;2023-06-22T03:32:25;22.10;99.90
18454;DHT22;9356;52.202;20.950;2023-06-22T03:33:30;22.10;99.90
18454;DHT22;9356;52.202;20.950;2023-06-22T03:34:38;22.10;99.90
18454;DHT22;9356;52.202;20.950;2023-06-22T03:35:42;22.10;99.90
18454;DHT22;9356;52.202;20.950;2023-06-22T03:36:49;22.20;99.90
18454;DHT22;9356;52.202;20.950;2023-06-22T03:37:54;22.10;99.90
18454;DHT22;9356;52.202;20.950;2023-06-22T03:38:58;22.10;99.90
18454;DHT22;9356;52.202;20.950;2023-06-22T03:40:04;22.10;99.90
18454;DHT22;9356;52.202;20.950;2023-06-22T03:41:11;22.20;99.90
18454;DHT22;9356;52.202;20.950;2023-06-22T03:42:15;22.20;99.90
18454;DHT22;9356;52.202;20.950;2023-06-22T03:43:21;22.20;99.90
18454;DHT22;9356;52.202;20.950;2023-06-22T03:44:26;22.20;99.90
18454;DHT22;9356;52.202;20.950;2023-06-22T03:45:30;22.20;99.90
18454;DHT22;9356;52.202;20.950;2023-06-22T03:46:40;22.20;99.90
18454;DHT22;9356;52.202;20.950;2023-06-22T03:47:45;22.20;99.90
18454;DHT22;9356;52.202;20.950;2023-06-22T03:48:48;22.20;99.90
18454;DHT22;9356;52.202;20.950;2023-06-22T03:49:54;22.30;99.90
18454;DHT22;9356;52.202;20.950;2023-06-22T03:50:59;22.30;99.90
18454;DHT22;9356;52.202;20.950;2023-06-22T03:52:12;22.30;99.90
18454;DHT22;9356;52.202;20.950;2023-06-22T03:53:16;22.30;99.90
18454;DHT22;9356;52.202;20.950;2023-06-22T03:54:19;22.30;99.90
18454;DHT22;9356;52.202;20.950;2023-06-22T03:55:26;22.40;99.90
18454;DHT22;9356;52.202;20.950;2023-06-22T03:56:31;22.30;99.90
18454;DHT22;9356;52.202;20.950;2023-06-22T03:57:36;22.30;99.90
18454;DHT22;9356;52.202;20.950;2023-06-22T03:58:41;22.20;99.90
18454;DHT22;9356;52.202;20.950;2023-06-22T03:59:48;22.20;99.90
18454;DHT22;9356;52.202;20.950;2023-06-22T04:00:53;22.20;99.90
18454;DHT22;9356;52.202;20.950;2023-06-22T04:01:58;22.10;99.90
18454;DHT22;9356;52.202;20.950;2023-06-22T04:03:03;22.20;99.90
18454;DHT22;9356;52.202;20.950;2023-06-22T04:04:10;22.20;99.90
18454;DHT22;9356;52.202;20.950;2023-06-22T04:05:16;22.20;99.90
18454;DHT22;9356;52.202;20.950;2023-06-22T04:06:23;22.20;99.90
18454;DHT22;9356;52.202;20.950;2023-06-22T04:07:27;22.30;99.90
18454;DHT22;9356;52.202;20.950;2023-06-22T04:08:36;22.30;99.90
18454;DHT22;9356;52.202;20.950;2023-06-22T04:09:39;22.30;99.90
18454;DHT22;9356;52.202;20.950;2023-06-22T04:10:43;22.30;99.90
18454;DHT22;9356;52.202;20.950;2023-06-22T04:11:47;22.40;99.90
18454;DHT22;9356;52.202;20.950;2023-06-22T04:12:55;22.40;99.90
18454;DHT22;9356;52.202;20.950;2023-06-22T04:13:59;22.40;99.90
18454;DHT22;9356;52.202;20.950;2023-06-22T04:15:04;22.40;99.90
18454;DHT22;9356;52.202;20.950;2023-06-22T04:16:10;22.40;99.90
18454;DHT22;9356;52.202;20.950;2023-06-22T04:17:14;22.40;99.90
18454;DHT22;9356;52.202;20.950;2023-06-22T04:18:21;22.40;99.90
18454;DHT22;9356;52.202;20.950;2023-06-22T04:19:30;22.40;99.90
18454;DHT22;9356;52.202;20.950;2023-06-22T04:20:38;22.50;99.90
18454;DHT22;9356;52.202;20.950;2023-06-22T04:21:41;22.50;99.90
18454;DHT22;9356;52.202;20.950;2023-06-22T04:22:50;22.40;99.90
18454;DHT22;9356;52.202;20.950;2023-06-22T04:23:54;22.50;99.90
18454;DHT22;9356;52.202;20.950;2023-06-22T04:24:57;22.50;99.90
18454;DHT22;9356;52.202;20.950;2023-06-22T04:26:02;22.50;99.90
18454;DHT22;9356;52.202;20.950;2023-06-22T04:27:07;22.50;99.90
18454;DHT22;9356;52.202;20.950;2023-06-22T04:28:12;22.60;99.90
18454;DHT22;9356;52.202;20.950;2023-06-22T04:29:15;22.60;99.90
18454;DHT22;9356;52.202;20.950;2023-06-22T04:30:20;22.60;99.90
18454;DHT22;9356;52.202;20.950;2023-06-22T04:31:24;22.70;99.90
18454;DHT22;9356;52.202;20.950;2023-06-22T04:32:35;22.70;99.90
18454;DHT22;9356;52.202;20.950;2023-06-22T04:33:38;22.70;99.90
18454;DHT22;9356;52.202;20.950;2023-06-22T04:34:44;22.70;99.90
18454;DHT22;9356;52.202;20.950;2023-06-22T04:35:56;22.70;99.90
18454;DHT22;9356;52.202;20.950;2023-06-22T04:37:01;22.70;99.90
18454;DHT22;9356;52.202;20.950;2023-06-22T04:38:07;22.70;99.90
18454;DHT22;9356;52.202;20.950;2023-06-22T04:39:12;22.60;99.90
18454;DHT22;9356;52.202;20.950;2023-06-22T04:40:16;22.60;99.90
18454;DHT22;9356;52.202;20.950;2023-06-22T04:41:22;22.60;99.90
18454;DHT22;9356;52.202;20.950;2023-06-22T04:42:27;22.60;99.90
18454;DHT22;9356;52.202;20.950;2023-06-22T04:43:30;22.60;99.90
18454;DHT22;9356;52.202;20.950;2023-06-22T04:44:37;22.60;99.90
18454;DHT22;9356;52.202;20.950;2023-06-22T04:45:42;22.60;99.90
18454;DHT22;9356;52.202;20.950;2023-06-22T04:46:46;22.70;99.90
18454;DHT22;9356;52.202;20.950;2023-06-22T04:47:56;22.60;99.90
18454;DHT22;9356;52.202;20.950;2023-06-22T04:49:00;22.60;99.90
18454;DHT22;9356;52.202;20.950;2023-06-22T04:50:10;22.70;99.90
18454;DHT22;9356;52.202;20.950;2023-06-22T04:51:16;22.60;99.90
18454;DHT22;9356;52.202;20.950;2023-06-22T04:52:24;22.60;99.90
18454;DHT22;9356;52.202;20.950;2023-06-22T04:53:31;22.60;99.90
18454;DHT22;9356;52.202;20.950;2023-06-22T04:54:39;22.60;99.90
18454;DHT22;9356;52.202;20.950;2023-06-22T04:55:50;22.60;99.90
18454;DHT22;9356;52.202;20.950;2023-06-22T04:56:59;22.60;99.90
18454;DHT22;9356;52.202;20.950;2023-06-22T04:58:03;22.60;99.90
18454;DHT22;9356;52.202;20.950;2023-06-22T04:59:09;22.60;99.90
18454;DHT22;9356;52.202;20.950;2023-06-22T05:00:23;22.70;99.90
18454;DHT22;9356;52.202;20.950;2023-06-22T05:01:28;22.70;99.90
18454;DHT22;9356;52.202;20.950;2023-06-22T05:02:39;22.70;99.90
18454;DHT22;9356;52.202;20.950;2023-06-22T05:03:46;22.70;99.90
18454;DHT22;9356;52.202;20.950;2023-06-22T05:04:50;22.60;99.90
18454;DHT22;9356;52.202;20.950;2023-06-22T05:05:56;22.60;99.90
18454;DHT22;9356;52.202;20.950;2023-06-22T05:07:03;22.60;99.90
18454;DHT22;9356;52.202;20.950;2023-06-22T05:08:08;22.60;99.90
18454;DHT22;9356;52.202;20.950;2023-06-22T05:09:12;22.60;99.90
18454;DHT22;9356;52.202;20.950;2023-06-22T05:10:15;22.60;99.90
18454;DHT22;9356;52.202;20.950;2023-06-22T05:11:27;22.60;99.90
18454;DHT22;9356;52.202;20.950;2023-06-22T05:12:31;22.70;99.90
18454;DHT22;9356;52.202;20.950;2023-06-22T05:13:36;22.70;99.90
18454;DHT22;9356;52.202;20.950;2023-06-22T05:14:44;22.70;99.90
18454;DHT22;9356;52.202;20.950;2023-06-22T05:15:52;22.70;99.90
18454;DHT22;9356;52.202;20.950;2023-06-22T05:17:10;22.70;99.90
18454;DHT22;9356;52.202;20.950;2023-06-22T05:18:20;22.80;99.90
18454;DHT22;9356;52.202;20.950;2023-06-22T05:19:27;22.80;99.90
18454;DHT22;9356;52.202;20.950;2023-06-22T05:20:37;22.80;99.90
18454;DHT22;9356;52.202;20.950;2023-06-22T05:21:43;22.80;99.90
18454;DHT22;9356;52.202;20.950;2023-06-22T05:22:51;22.80;99.90
18454;DHT22;9356;52.202;20.950;2023-06-22T05:23:57;22.90;99.90
18454;DHT22;9356;52.202;20.950;2023-06-22T05:25:04;22.80;99.90
18454;DHT22;9356;52.202;20.950;2023-06-22T05:26:09;22.90;99.90
18454;DHT22;9356;52.202;20.950;2023-06-22T05:27:15;22.90;99.90
18454;DHT22;9356;52.202;20.950;2023-06-22T05:28:20;22.90;99.90
18454;DHT22;9356;52.202;20.950;2023-06-22T05:29:26;22.90;99.90
18454;DHT22;9356;52.202;20.950;2023-06-22T05:30:32;22.90;99.90
18454;DHT22;9356;52.202;20.950;2023-06-22T05:31:36;23.00;99.90
18454;DHT22;9356;52.202;20.950;2023-06-22T05:32:39;23.00;99.90
18454;DHT22;9356;52.202;20.950;2023-06-22T05:33:48;22.90;99.90
18454;DHT22;9356;52.202;20.950;2023-06-22T05:34:54;22.90;99.90
18454;DHT22;9356;52.202;20.950;2023-06-22T05:35:59;22.90;99.90
18454;DHT22;9356;52.202;20.950;2023-06-22T05:37:03;22.90;99.90
18454;DHT22;9356;52.202;20.950;2023-06-22T05:38:10;23.00;99.90
18454;DHT22;9356;52.202;20.950;2023-06-22T05:39:15;23.00;99.90
18454;DHT22;9356;52.202;20.950;2023-06-22T05:40:20;23.00;99.90
18454;DHT22;9356;52.202;20.950;2023-06-22T05:41:24;23.00;99.90
18454;DHT22;9356;52.202;20.950;2023-06-22T05:42:30;23.00;99.90
18454;DHT22;9356;52.202;20.950;2023-06-22T05:43:33;23.00;99.90
18454;DHT22;9356;52.202;20.950;2023-06-22T05:44:38;23.00;99.90
18454;DHT22;9356;52.202;20.950;2023-06-22T05:45:45;23.00;99.90
18454;DHT22;9356;52.202;20.950;2023-06-22T05:46:50;23.00;99.90
18454;DHT22;9356;52.202;20.950;2023-06-22T05:47:54;23.00;99.90
18454;DHT22;9356;52.202;20.950;2023-06-22T05:48:58;23.00;99.90
18454;DHT22;9356;52.202;20.950;2023-06-22T05:50:03;23.00;99.90
18454;DHT22;9356;52.202;20.950;2023-06-22T05:51:10;23.00;99.90
18454;DHT22;9356;52.202;20.950;2023-06-22T05:52:14;23.00;99.90
18454;DHT22;9356;52.202;20.950;2023-06-22T05:53:18;23.00;99.90
18454;DHT22;9356;52.202;20.950;2023-06-22T05:54:22;23.00;99.90
18454;DHT22;9356;52.202;20.950;2023-06-22T05:55:26;23.00;99.90
18454;DHT22;9356;52.202;20.950;2023-06-22T05:56:30;23.00;99.90
18454;DHT22;9356;52.202;20.950;2023-06-22T05:57:34;23.00;99.90
18454;DHT22;9356;52.202;20.950;2023-06-22T05:58:38;23.00;99.90
18454;DHT22;9356;52.202;20.950;2023-06-22T05:59:43;23.00;99.90
18454;DHT22;9356;52.202;20.950;2023-06-22T06:00:48;23.00;99.90
18454;DHT22;9356;52.202;20.950;2023-06-22T06:01:53;23.00;99.90
18454;DHT22;9356;52.202;20.950;2023-06-22T06:02:59;23.10;99.90
18454;DHT22;9356;52.202;20.950;2023-06-22T06:04:06;23.00;99.90
18454;DHT22;9356;52.202;20.950;2023-06-22T06:05:12;23.00;99.90
18454;DHT22;9356;52.202;20.950;2023-06-22T06:06:17;23.00;99.90
18454;DHT22;9356;52.202;20.950;2023-06-22T06:07:23;23.00;99.90
18454;DHT22;9356;52.202;20.950;2023-06-22T06:08:28;23.00;99.90
18454;DHT22;9356;52.202;20.950;2023-06-22T06:09:31;23.00;99.90
18454;DHT22;9356;52.202;20.950;2023-06-22T06:10:35;23.00;99.90
18454;DHT22;9356;52.202;20.950;2023-06-22T06:11:41;23.00;99.90
18454;DHT22;9356;52.202;20.950;2023-06-22T06:12:47;23.10;99.90
18454;DHT22;9356;52.202;20.950;2023-06-22T06:13:51;23.10;99.90
18454;DHT22;9356;52.202;20.950;2023-06-22T06:14:56;23.10;99.90
18454;DHT22;9356;52.202;20.950;2023-06-22T06:15:59;23.10;99.90
18454;DHT22;9356;52.202;20.950;2023-06-22T06:17:03;23.10;99.90
18454;DHT22;9356;52.202;20.950;2023-06-22T06:18:06;23.10;99.90
18454;DHT22;9356;52.202;20.950;2023-06-22T06:19:11;23.10;99.90
18454;DHT22;9356;52.202;20.950;2023-06-22T06:20:15;23.10;99.90
18454;DHT22;9356;52.202;20.950;2023-06-22T06:21:19;23.10;99.90
18454;DHT22;9356;52.202;20.950;2023-06-22T06:22:24;23.10;99.90
18454;DHT22;9356;52.202;20.950;2023-06-22T06:23:31;23.10;99.90
18454;DHT22;9356;52.202;20.950;2023-06-22T06:24:35;23.10;99.90
18454;DHT22;9356;52.202;20.950;2023-06-22T06:25:42;23.20;99.90
18454;DHT22;9356;52.202;20.950;2023-06-22T06:26:47;23.20;99.90
18454;DHT22;9356;52.202;20.950;2023-06-22T06:27:51;23.20;99.90
18454;DHT22;9356;52.202;20.950;2023-06-22T06:29:01;23.20;99.90
18454;DHT22;9356;52.202;20.950;2023-06-22T06:30:10;23.20;99.90
18454;DHT22;9356;52.202;20.950;2023-06-22T06:31:14;23.20;99.90
18454;DHT22;9356;52.202;20.950;2023-06-22T06:32:20;23.20;99.90
18454;DHT22;9356;52.202;20.950;2023-06-22T06:33:23;23.30;99.90
18454;DHT22;9356;52.202;20.950;2023-06-22T06:34:27;23.30;99.90
18454;DHT22;9356;52.202;20.950;2023-06-22T06:35:38;23.30;99.90
18454;DHT22;9356;52.202;20.950;2023-06-22T06:36:47;23.40;99.90
18454;DHT22;9356;52.202;20.950;2023-06-22T06:37:50;23.40;99.90
18454;DHT22;9356;52.202;20.950;2023-06-22T06:39:00;23.50;99.90
18454;DHT22;9356;52.202;20.950;2023-06-22T06:40:12;23.60;99.90
18454;DHT22;9356;52.202;20.950;2023-06-22T06:41:20;23.70;99.90
18454;DHT22;9356;52.202;20.950;2023-06-22T06:42:25;23.80;99.90
18454;DHT22;9356;52.202;20.950;2023-06-22T06:43:33;23.90;99.90
18454;DHT22;9356;52.202;20.950;2023-06-22T06:44:40;23.90;99.90
18454;DHT22;9356;52.202;20.950;2023-06-22T06:45:43;24.00;99.90
18454;DHT22;9356;52.202;20.950;2023-06-22T06:46:54;24.00;99.90
18454;DHT22;9356;52.202;20.950;2023-06-22T06:48:08;24.10;99.90
18454;DHT22;9356;52.202;20.950;2023-06-22T06:49:12;24.10;99.90
18454;DHT22;9356;52.202;20.950;2023-06-22T06:50:16;24.20;99.90
18454;DHT22;9356;52.202;20.950;2023-06-22T06:51:22;24.30;99.90
18454;DHT22;9356;52.202;20.950;2023-06-22T06:52:27;24.30;99.90
18454;DHT22;9356;52.202;20.950;2023-06-22T06:53:33;24.40;99.90
18454;DHT22;9356;52.202;20.950;2023-06-22T06:54:39;24.40;99.90
18454;DHT22;9356;52.202;20.950;2023-06-22T06:55:44;24.40;99.90
18454;DHT22;9356;52.202;20.950;2023-06-22T06:56:50;24.40;99.90
18454;DHT22;9356;52.202;20.950;2023-06-22T06:57:54;24.50;99.90
18454;DHT22;9356;52.202;20.950;2023-06-22T06:59:01;24.50;99.90
18454;DHT22;9356;52.202;20.950;2023-06-22T07:00:07;24.60;99.90
18454;DHT22;9356;52.202;20.950;2023-06-22T07:01:14;24.70;99.90
18454;DHT22;9356;52.202;20.950;2023-06-22T07:02:27;24.80;99.90